Time,TemperatureF,DewpointF,PressureIn,WindDirection,WindDirectionDegrees,WindSpeedMPH,WindSpeedGustMPH,Humidity,HourlyPrecipIn,Conditions,Clouds,dailyrainin,SolarRadiationWatts/m^2,SoftwareType,DateUTC
2013-02-17 00:02:00,-18.0,-26.0,-100.00,SSW,211,0.0,2.0,66,0.00,,,0.00,1.000000,,2013-02-17 06:02:00,
2013-02-17 00:11:00,-18.0,-26.0,-100.00,SSW,211,0.0,2.0,66,0.00,,,0.00,1.000000,,2013-02-17 06:11:00,
2013-02-17 00:21:00,-18.0,-26.0,-100.00,SSW,211,0.0,2.0,66,0.00,,,0.00,1.000000,,2013-02-17 06:21:00,
2013-02-17 00:31:00,-18.0,-26.0,-100.00,SSW,211,0.0,2.0,66,0.00,,,0.00,1.000000,,2013-02-17 06:31:00,
2013-02-17 01:01:00,-19.0,-27.0,-100.00,SW,214,0.0,0.0,67,0.00,,,0.00,1.000000,,2013-02-17 07:01:00,
2013-02-17 01:11:00,-19.0,-27.0,-100.00,SW,214,0.0,0.0,67,0.00,,,0.00,1.000000,,2013-02-17 07:11:00,
2013-02-17 01:21:00,-19.0,-27.0,-100.00,SW,214,0.0,0.0,67,0.00,,,0.00,1.000000,,2013-02-17 07:21:00,
2013-02-17 02:01:00,-21.0,-29.0,-100.00,SSW,206,0.0,0.0,64,0.00,,,0.00,1.000000,,2013-02-17 08:01:00,
2013-02-17 03:02:00,-22.0,-30.0,-100.00,SSW,206,0.0,0.0,64,0.00,,,0.00,1.000000,,2013-02-17 09:02:00,
2013-02-17 04:01:00,-24.0,-33.0,-100.00,SSW,208,0.0,0.0,62,0.00,,,0.00,1.000000,,2013-02-17 10:01:00,
2013-02-17 05:01:00,-25.0,-34.0,-100.00,SSW,211,0.0,0.0,60,0.00,,,0.00,1.000000,,2013-02-17 11:01:00,
2013-02-17 06:03:00,-25.0,-34.0,-100.00,SSW,213,0.0,0.0,61,0.00,,,0.00,1.000000,,2013-02-17 12:03:00,
2013-02-17 07:02:00,-26.0,-35.0,-100.00,SSE,150,0.0,0.0,60,0.00,,,0.00,1.000000,,2013-02-17 13:02:00,
2013-02-17 08:01:00,-25.0,-34.0,-100.00,SSE,160,0.0,0.0,60,0.00,,,0.00,8.000000,,2013-02-17 14:01:00,
2013-02-17 09:02:00,-5.0,-14.0,-100.00,ENE,57,0.0,2.0,63,0.00,,,0.00,103.000000,,2013-02-17 15:02:00,
2013-02-17 09:32:00,-5.0,-14.0,-100.00,ENE,57,0.0,2.0,63,0.00,,,0.00,103.000000,,2013-02-17 15:32:00,
2013-02-17 10:01:00,12.0,2.0,-100.00,SW,219,3.0,7.0,62,0.00,,,0.00,281.000000,,2013-02-17 16:01:00,
2013-02-17 10:32:00,12.0,2.0,-100.00,SW,219,3.0,7.0,62,0.00,,,0.00,281.000000,,2013-02-17 16:32:00,
2013-02-17 10:52:00,16.0,-1.0,-100.00,SW,236,6.0,13.0,46,0.00,,,0.00,417.000000,,2013-02-17 16:52:00,
2013-02-17 11:02:00,16.0,-1.0,-100.00,SW,236,6.0,13.0,46,0.00,,,0.00,417.000000,,2013-02-17 17:02:00,
2013-02-17 11:11:00,16.0,-1.0,-100.00,SW,236,6.0,13.0,46,0.00,,,0.00,417.000000,,2013-02-17 17:11:00,
2013-02-17 11:21:00,16.0,-1.0,-100.00,SW,236,6.0,13.0,46,0.00,,,0.00,417.000000,,2013-02-17 17:21:00,
2013-02-17 11:32:00,16.0,-1.0,-100.00,SW,236,6.0,13.0,46,0.00,,,0.00,417.000000,,2013-02-17 17:32:00,
2013-02-17 12:02:00,20.0,-1.0,-100.00,SSW,196,5.0,12.0,38,0.00,,,0.00,514.000000,,2013-02-17 18:02:00,
2013-02-17 12:11:00,20.0,-1.0,-100.00,SSW,196,5.0,12.0,38,0.00,,,0.00,514.000000,,2013-02-17 18:11:00,
2013-02-17 12:22:00,20.0,-1.0,-100.00,SSW,196,5.0,12.0,38,0.00,,,0.00,514.000000,,2013-02-17 18:22:00,
2013-02-17 12:33:00,20.0,-1.0,-100.00,SSW,196,5.0,12.0,38,0.00,,,0.00,514.000000,,2013-02-17 18:33:00,
2013-02-17 13:01:00,22.0,0.0,-100.00,SW,214,6.0,14.0,38,0.00,,,0.00,542.000000,,2013-02-17 19:01:00,
2013-02-17 13:11:00,22.0,0.0,-100.00,SW,214,6.0,14.0,38,0.00,,,0.00,542.000000,,2013-02-17 19:11:00,
2013-02-17 13:21:00,22.0,0.0,-100.00,SW,214,6.0,14.0,38,0.00,,,0.00,542.000000,,2013-02-17 19:21:00,
2013-02-17 13:32:00,22.0,0.0,-100.00,SW,214,6.0,14.0,38,0.00,,,0.00,542.000000,,2013-02-17 19:32:00,
2013-02-17 14:02:00,24.0,2.0,-100.00,SSW,199,6.0,11.0,37,0.01,,,0.01,509.000000,,2013-02-17 20:02:00,
2013-02-17 14:11:00,24.0,2.0,-100.00,SSW,199,6.0,11.0,37,0.01,,,0.01,509.000000,,2013-02-17 20:11:00,
2013-02-17 14:21:00,24.0,2.0,-100.00,SSW,199,6.0,11.0,37,0.01,,,0.01,509.000000,,2013-02-17 20:21:00,
2013-02-17 14:32:00,24.0,2.0,-100.00,SSW,199,6.0,11.0,37,0.01,,,0.01,509.000000,,2013-02-17 20:32:00,
2013-02-17 15:02:00,25.0,2.0,-100.00,SSW,196,6.0,13.0,37,0.00,,,0.01,399.000000,,2013-02-17 21:02:00,
2013-02-17 15:11:00,25.0,2.0,-100.00,SSW,196,6.0,13.0,37,0.00,,,0.01,399.000000,,2013-02-17 21:11:00,
2013-02-17 15:21:00,25.0,2.0,-100.00,SSW,196,6.0,13.0,37,0.00,,,0.01,399.000000,,2013-02-17 21:21:00,
2013-02-17 15:32:00,25.0,2.0,-100.00,SSW,196,6.0,13.0,37,0.00,,,0.01,399.000000,,2013-02-17 21:32:00,
2013-02-17 16:01:00,24.0,3.0,-100.00,SSW,209,5.0,15.0,39,0.00,,,0.01,234.000000,,2013-02-17 22:01:00,
2013-02-17 16:12:00,24.0,3.0,-100.00,SSW,209,5.0,15.0,39,0.00,,,0.01,234.000000,,2013-02-17 22:12:00,
2013-02-17 16:22:00,24.0,3.0,-100.00,SSW,209,5.0,15.0,39,0.00,,,0.01,234.000000,,2013-02-17 22:22:00,
2013-02-17 16:32:00,24.0,3.0,-100.00,SSW,209,5.0,15.0,39,0.00,,,0.01,234.000000,,2013-02-17 22:32:00,
2013-02-17 17:02:00,22.0,3.0,-100.00,SSW,195,4.0,11.0,44,0.00,,,0.01,86.000000,,2013-02-17 23:02:00,
2013-02-17 17:11:00,22.0,3.0,-100.00,SSW,195,4.0,11.0,44,0.00,,,0.01,86.000000,,2013-02-17 23:11:00,
2013-02-17 17:21:00,22.0,3.0,-100.00,SSW,195,4.0,11.0,44,0.00,,,0.01,86.000000,,2013-02-17 23:21:00,
2013-02-17 17:32:00,22.0,3.0,-100.00,SSW,195,4.0,11.0,44,0.00,,,0.01,86.000000,,2013-02-17 23:32:00,
2013-02-17 18:01:00,20.0,3.0,-100.00,South,186,5.0,13.0,47,0.00,,,0.01,11.000000,,2013-02-18 00:01:00,
2013-02-17 18:11:00,20.0,3.0,-100.00,South,186,5.0,13.0,47,0.00,,,0.01,11.000000,,2013-02-18 00:11:00,
2013-02-17 18:22:00,20.0,3.0,-100.00,South,186,5.0,13.0,47,0.00,,,0.01,11.000000,,2013-02-18 00:22:00,
2013-02-17 18:32:00,20.0,3.0,-100.00,South,186,5.0,13.0,47,0.00,,,0.01,11.000000,,2013-02-18 00:32:00,
2013-02-17 19:01:00,19.0,3.0,-100.00,SSW,203,4.0,13.0,48,0.00,,,0.01,1.000000,,2013-02-18 01:01:00,
2013-02-17 19:12:00,19.0,3.0,-100.00,SSW,203,4.0,13.0,48,0.00,,,0.01,1.000000,,2013-02-18 01:12:00,
2013-02-17 19:21:00,19.0,3.0,-100.00,SSW,203,4.0,13.0,48,0.00,,,0.01,1.000000,,2013-02-18 01:21:00,
2013-02-17 19:31:00,19.0,3.0,-100.00,SSW,203,4.0,13.0,48,0.00,,,0.01,1.000000,,2013-02-18 01:31:00,
2013-02-17 20:01:00,18.0,3.0,-100.00,SSW,209,5.0,11.0,50,0.00,,,0.01,1.000000,,2013-02-18 02:01:00,
2013-02-17 20:11:00,18.0,3.0,-100.00,SSW,209,5.0,11.0,50,0.00,,,0.01,1.000000,,2013-02-18 02:11:00,
2013-02-17 20:21:00,18.0,3.0,-100.00,SSW,209,5.0,11.0,50,0.00,,,0.01,1.000000,,2013-02-18 02:21:00,
2013-02-17 20:32:00,18.0,3.0,-100.00,SSW,209,5.0,11.0,50,0.00,,,0.01,1.000000,,2013-02-18 02:32:00,
2013-02-17 21:01:00,17.0,3.0,-100.00,SSW,201,5.0,13.0,53,0.00,,,0.01,1.000000,,2013-02-18 03:01:00,
2013-02-17 21:11:00,17.0,3.0,-100.00,SSW,201,5.0,13.0,53,0.00,,,0.01,1.000000,,2013-02-18 03:11:00,
2013-02-17 21:21:00,17.0,3.0,-100.00,SSW,201,5.0,13.0,53,0.00,,,0.01,1.000000,,2013-02-18 03:21:00,
2013-02-17 21:31:00,17.0,3.0,-100.00,SSW,201,5.0,13.0,53,0.00,,,0.01,1.000000,,2013-02-18 03:31:00,
2013-02-17 22:01:00,17.0,4.0,-100.00,SSW,205,5.0,17.0,56,0.00,,,0.01,1.000000,,2013-02-18 04:01:00,
2013-02-17 22:11:00,17.0,4.0,-100.00,SSW,205,5.0,17.0,56,0.00,,,0.01,1.000000,,2013-02-18 04:11:00,
2013-02-17 22:21:00,17.0,4.0,-100.00,SSW,205,5.0,17.0,56,0.00,,,0.01,1.000000,,2013-02-18 04:21:00,
2013-02-17 22:32:00,17.0,4.0,-100.00,SSW,205,5.0,17.0,56,0.00,,,0.01,1.000000,,2013-02-18 04:32:00,
2013-02-17 23:02:00,17.0,5.0,-100.00,SSW,204,6.0,16.0,58,0.00,,,0.01,1.000000,,2013-02-18 05:02:00,
2013-02-17 23:11:00,17.0,5.0,-100.00,SSW,204,6.0,16.0,58,0.00,,,0.01,1.000000,,2013-02-18 05:11:00,
2013-02-17 23:21:00,17.0,5.0,-100.00,SSW,204,6.0,16.0,58,0.00,,,0.01,1.000000,,2013-02-18 05:21:00,
2013-02-17 23:31:00,17.0,5.0,-100.00,SSW,204,6.0,16.0,58,0.00,,,0.01,1.000000,,2013-02-18 05:31:00,